Terminal Aerodrome Forecast
Issued by NWS Cleveland, OH

Home | Current Version | Previous Version | Text Only | Print | Product List | Glossary On
Versions: 1 2 3 4 5 6 7 8 9 10 11 12 13 14 15 16 17 18 19 20 21 22 23 24 25 26 27
000
FTUS41 KCLE 310500
TAFCLE
TAF
KCLE 310536Z 3106/0112 19004KT P6SM SCT035 OVC045
     FM311500 22005KT P6SM VCSH SCT025 OVC035
      TEMPO 3117/3120 4SM -SHRA BR SCT015 OVC025
     FM312000 01010KT 3SM -SHRA BR OVC015
     FM010400 36015G28KT 4SM -SHRA BR SCT008 OVC015=

USA.gov is the U.S. government's official web portal to all federal, state and local government web resources and services.